createdAt,value
2018-08-03T00:00:47.900Z,101607.27
2018-08-03T00:03:16.985Z,101607.70
2018-08-03T00:05:46.045Z,101607.55
2018-08-03T00:08:15.168Z,101600.61
2018-08-03T00:10:44.240Z,101603.39
2018-08-03T00:13:13.340Z,101595.46
2018-08-03T00:15:42.488Z,101595.53
2018-08-03T00:18:11.579Z,101593.86
2018-08-03T00:20:40.662Z,101600.89
2018-08-03T00:23:09.751Z,101606.77
2018-08-03T00:25:38.828Z,101602.86
2018-08-03T00:28:07.932Z,101602.41
2018-08-03T00:30:36.996Z,101606.42
2018-08-03T00:33:06.107Z,101602.63
2018-08-03T00:35:35.176Z,101600.83
2018-08-03T00:38:04.292Z,101597.30
2018-08-03T00:40:33.366Z,101604.09
2018-08-03T00:43:02.464Z,101602.42
2018-08-03T00:45:31.564Z,101608.19
2018-08-03T00:48:00.632Z,101607.21
2018-08-03T00:50:29.752Z,101608.52
2018-08-03T00:52:58.816Z,101610.17
2018-08-03T00:55:27.932Z,101604.95
2018-08-03T00:57:56.997Z,101605.03
2018-08-03T01:00:26.096Z,101608.09
2018-08-03T01:02:55.173Z,101604.68
2018-08-03T01:05:24.281Z,101607.30
2018-08-03T01:07:53.380Z,101609.25
2018-08-03T01:10:22.499Z,101606.29
2018-08-03T01:12:51.583Z,101609.35
2018-08-03T01:15:20.675Z,101611.64
2018-08-03T01:17:49.755Z,101610.32
2018-08-03T01:20:18.856Z,101617.33
2018-08-03T01:22:47.935Z,101617.31
2018-08-03T01:25:17.060Z,101618.98
2018-08-03T01:27:46.487Z,101616.56
2018-08-03T01:30:15.556Z,101614.88
2018-08-03T01:32:44.652Z,101617.92
2018-08-03T01:35:13.729Z,101616.47
2018-08-03T01:37:42.900Z,101620.31
2018-08-03T01:40:11.929Z,101616.37
2018-08-03T01:42:41.058Z,101617.45
2018-08-03T01:45:10.147Z,101618.70
2018-08-03T01:47:39.263Z,101613.87
2018-08-03T01:50:08.340Z,101619.44
2018-08-03T01:52:37.440Z,101616.20
2018-08-03T01:55:06.582Z,101615.67
2018-08-03T01:57:35.692Z,101616.55
2018-08-03T02:00:05.375Z,101611.89
2018-08-03T02:02:34.471Z,101614.22
2018-08-03T02:05:03.556Z,101620.51
2018-08-03T02:07:32.660Z,101616.60
2018-08-03T02:10:01.748Z,101612.56
2018-08-03T02:12:30.852Z,101609.75
2018-08-03T02:14:59.923Z,101610.55
2018-08-03T02:17:29.056Z,101605.72
2018-08-03T02:19:58.132Z,101604.98
2018-08-03T02:22:27.232Z,101605.03
2018-08-03T02:24:56.315Z,101614.14
2018-08-03T02:27:25.424Z,101617.67
2018-08-03T02:29:54.502Z,101617.42
2018-08-03T02:32:23.617Z,101612.21
2018-08-03T02:34:52.731Z,101617.41
2018-08-03T02:37:21.797Z,101614.87
2018-08-03T02:39:50.936Z,101611.86
2018-08-03T02:42:20.120Z,101617.49
2018-08-03T02:44:49.221Z,101622.27
2018-08-03T02:47:18.312Z,101619.30
2018-08-03T02:49:47.401Z,101621.59
2018-08-03T02:52:16.488Z,101616.47
2018-08-03T02:54:45.585Z,101616.90
2018-08-03T02:57:14.672Z,101615.97
2018-08-03T02:59:43.761Z,101620.23
2018-08-03T03:02:12.837Z,101615.58
2018-08-03T03:04:41.932Z,101616.41
2018-08-03T03:07:11.003Z,101617.17
2018-08-03T03:09:40.092Z,101621.59
2018-08-03T03:12:09.469Z,101622.09
2018-08-03T03:14:38.561Z,101621.74
2018-08-03T03:17:07.648Z,101623.52
2018-08-03T03:19:36.827Z,101622.65
2018-08-03T03:22:05.940Z,101619.14
2018-08-03T03:24:35.037Z,101626.05
2018-08-03T03:27:04.116Z,101628.17
2018-08-03T03:29:33.235Z,101629.09
2018-08-03T03:32:02.332Z,101630.84
2018-08-03T03:34:31.471Z,101628.67
2018-08-03T03:37:00.741Z,101633.84
2018-08-03T03:39:29.844Z,101632.75
2018-08-03T03:41:58.984Z,101629.72
2018-08-03T03:44:28.092Z,101631.46
2018-08-03T03:46:57.205Z,101630.20
2018-08-03T03:49:26.296Z,101632.75
2018-08-03T03:51:55.422Z,101634.85
2018-08-03T03:54:24.514Z,101629.55
2018-08-03T03:56:53.620Z,101636.17
2018-08-03T03:59:22.752Z,101634.95
2018-08-03T04:01:51.861Z,101632.41
2018-08-03T04:04:20.949Z,101631.46
2018-08-03T04:06:50.105Z,101632.31
2018-08-03T04:09:19.188Z,101631.83
2018-08-03T04:11:48.336Z,101638.87
2018-08-03T04:14:17.419Z,101640.53
2018-08-03T04:16:46.540Z,101636.14
2018-08-03T04:19:15.612Z,101638.00
2018-08-03T04:21:44.712Z,101632.79
2018-08-03T04:24:13.796Z,101631.02
2018-08-03T04:26:42.901Z,101637.84
2018-08-03T04:29:11.984Z,101635.67
2018-08-03T04:31:41.083Z,101638.38
2018-08-03T04:34:10.160Z,101639.33
2018-08-03T04:36:39.303Z,101639.30
2018-08-03T04:39:08.808Z,101638.38
2018-08-03T04:41:37.948Z,101638.42
2018-08-03T04:44:07.053Z,101633.98
2018-08-03T04:46:36.559Z,101634.48
2018-08-03T04:49:05.660Z,101637.02
2018-08-03T04:51:34.767Z,101634.67
2018-08-03T04:54:03.904Z,101632.00
2018-08-03T04:56:32.981Z,101633.67
2018-08-03T04:59:02.091Z,101632.81
2018-08-03T05:01:31.188Z,101633.73
2018-08-03T05:04:00.305Z,101631.61
2018-08-03T05:06:29.388Z,101632.94
2018-08-03T05:08:58.496Z,101636.41
2018-08-03T05:11:27.648Z,101635.38
2018-08-03T05:13:56.753Z,101635.40
2018-08-03T05:16:25.847Z,101637.04
2018-08-03T05:18:55.101Z,101639.95
2018-08-03T05:21:24.177Z,101637.05
2018-08-03T05:23:53.308Z,101642.91
2018-08-03T05:26:22.404Z,101644.20
2018-08-03T05:28:51.524Z,101643.91
2018-08-03T05:31:20.698Z,101640.69
2018-08-03T05:33:49.996Z,101649.13
2018-08-03T05:36:19.775Z,101645.02
2018-08-03T05:38:48.812Z,101641.44
2018-08-03T05:41:17.944Z,101643.91
2018-08-03T05:43:47.096Z,101643.80
2018-08-03T05:46:16.195Z,101642.40
2018-08-03T05:48:45.321Z,101644.78
2018-08-03T05:51:14.679Z,101640.77
2018-08-03T05:53:43.825Z,101640.63
2018-08-03T05:56:12.920Z,101642.80
2018-08-03T05:58:42.013Z,101649.95
2018-08-03T06:01:11.124Z,101646.85
2018-08-03T06:03:40.215Z,101652.93
2018-08-03T06:06:09.330Z,101642.94
2018-08-03T06:08:38.416Z,101645.04
2018-08-03T06:11:07.760Z,101644.68
2018-08-03T06:13:37.891Z,101653.50
2018-08-03T06:16:07.179Z,101657.09
2018-08-03T06:18:36.263Z,101648.34
2018-08-03T06:21:05.432Z,101648.47
2018-08-03T06:23:34.540Z,101653.22
2018-08-03T06:26:03.661Z,101652.12
2018-08-03T06:28:32.819Z,101651.53
2018-08-03T06:31:01.896Z,101646.68
2018-08-03T06:33:30.988Z,101648.16
2018-08-03T06:36:00.089Z,101647.28
2018-08-03T06:38:29.205Z,101644.18
2018-08-03T06:40:58.304Z,101651.30
2018-08-03T06:43:27.416Z,101651.06
2018-08-03T06:45:56.533Z,101648.64
2018-08-03T06:48:25.638Z,101646.73
2018-08-03T06:50:55.401Z,101652.16
2018-08-03T06:53:24.493Z,101653.58
2018-08-03T06:55:53.597Z,101644.94
2018-08-03T06:58:22.712Z,101652.45
2018-08-03T07:00:51.824Z,101640.51
2018-08-03T07:03:20.943Z,101641.22
2018-08-03T07:05:50.056Z,101649.08
2018-08-03T07:08:19.180Z,101643.89
2018-08-03T07:10:48.272Z,101644.34
2018-08-03T07:13:17.396Z,101647.75
2018-08-03T07:15:47.427Z,101645.20
2018-08-03T07:18:16.539Z,101644.95
2018-08-03T07:20:45.711Z,101644.64
2018-08-03T07:23:14.739Z,101647.09
2018-08-03T07:25:43.844Z,101645.66
2018-08-03T07:28:12.948Z,101649.88
2018-08-03T07:30:42.039Z,101646.34
2018-08-03T07:33:11.144Z,101645.84
2018-08-03T07:35:40.221Z,101640.88
2018-08-03T07:38:09.328Z,101643.73
2018-08-03T07:40:38.531Z,101643.64
2018-08-03T07:43:07.751Z,101645.69
2018-08-03T07:45:36.816Z,101641.89
2018-08-03T07:48:05.904Z,101644.03
2018-08-03T07:50:34.989Z,101647.28
2018-08-03T07:53:04.105Z,101641.62
2018-08-03T07:55:33.206Z,101645.56
2018-08-03T07:58:02.303Z,101638.11
2018-08-03T08:00:31.400Z,101634.73
2018-08-03T08:03:00.481Z,101637.38
2018-08-03T08:05:30.613Z,101637.72
2018-08-03T08:07:59.684Z,101634.38
2018-08-03T08:10:28.799Z,101632.94
2018-08-03T08:12:57.895Z,101631.16
2018-08-03T08:15:26.993Z,101626.50
2018-08-03T08:17:56.203Z,101631.45
2018-08-03T08:20:25.328Z,101634.53
2018-08-03T08:22:54.404Z,101618.39
2018-08-03T08:25:23.492Z,101616.05
2018-08-03T08:27:52.608Z,101626.09
2018-08-03T08:30:22.680Z,101626.23
2018-08-03T08:32:51.768Z,101619.47
2018-08-03T08:35:20.889Z,101618.75
2018-08-03T08:37:50.029Z,101613.55
2018-08-03T08:40:19.137Z,101611.36
2018-08-03T08:42:48.272Z,101611.94
2018-08-03T08:45:17.407Z,101609.47
2018-08-03T08:47:46.480Z,101615.03
2018-08-03T08:50:15.608Z,101608.00
2018-08-03T08:52:44.740Z,101608.16
2018-08-03T08:55:13.880Z,101605.12
2018-08-03T08:57:42.971Z,101598.27
2018-08-03T09:00:12.064Z,101600.42
2018-08-03T09:02:41.156Z,101598.67
2018-08-03T09:05:10.232Z,101597.36
2018-08-03T09:07:39.364Z,101605.26
2018-08-03T09:10:08.444Z,101606.69
2018-08-03T09:12:37.639Z,101602.25
2018-08-03T09:15:06.800Z,101598.42
2018-08-03T09:17:35.916Z,101598.14
2018-08-03T09:20:05.376Z,101591.78
2018-08-03T09:22:34.488Z,101589.03
2018-08-03T09:25:03.573Z,101588.30
2018-08-03T09:27:32.699Z,101585.75
2018-08-03T09:30:01.800Z,101584.45
2018-08-03T09:32:30.912Z,101584.95
2018-08-03T09:34:59.992Z,101575.73
2018-08-03T09:37:29.096Z,101580.48
2018-08-03T09:39:58.232Z,101574.74
2018-08-03T09:42:27.376Z,101574.48
2018-08-03T09:44:56.464Z,101574.02
2018-08-03T09:47:25.616Z,101572.67
2018-08-03T09:49:54.783Z,101564.20
2018-08-03T09:52:23.876Z,101569.03
2018-08-03T09:54:52.952Z,101567.41
2018-08-03T09:57:22.068Z,101568.89
2018-08-03T09:59:51.162Z,101561.30
2018-08-03T10:02:20.263Z,101555.63
2018-08-03T10:04:49.388Z,101561.81
2018-08-03T10:07:18.476Z,101557.46
2018-08-03T10:09:47.552Z,101550.58
2018-08-03T10:12:16.652Z,101550.88
2018-08-03T10:14:45.782Z,101545.52
2018-08-03T10:17:14.869Z,101545.20
2018-08-03T10:19:43.964Z,101536.97
2018-08-03T10:22:13.073Z,101534.16
2018-08-03T10:24:42.164Z,101538.00
2018-08-03T10:27:11.236Z,101537.91
2018-08-03T10:29:40.404Z,101530.23
2018-08-03T10:32:09.474Z,101528.59
2018-08-03T10:34:38.581Z,101525.81
2018-08-03T10:37:07.668Z,101520.61
2018-08-03T10:39:36.812Z,101518.25
2018-08-03T10:42:05.911Z,101516.94
2018-08-03T10:44:35.000Z,101518.92
2018-08-03T10:47:04.165Z,101518.66
2018-08-03T10:49:33.201Z,101515.83
2018-08-03T10:52:02.272Z,101514.05
2018-08-03T10:54:31.380Z,101517.36
2018-08-03T10:57:01.241Z,101505.78
2018-08-03T10:59:30.340Z,101503.95
2018-08-03T11:01:59.403Z,101500.80
2018-08-03T11:04:28.688Z,101511.09
2018-08-03T11:06:57.814Z,101502.56
2018-08-03T11:09:26.878Z,101495.98
2018-08-03T11:11:55.976Z,101497.10
2018-08-03T11:14:25.094Z,101499.12
2018-08-03T11:16:54.186Z,101498.78
2018-08-03T11:19:23.348Z,101498.52
2018-08-03T11:21:52.466Z,101493.12
2018-08-03T11:24:21.565Z,101490.44
2018-08-03T11:26:50.619Z,101474.55
2018-08-03T11:29:19.719Z,101490.78
2018-08-03T11:31:48.800Z,101486.92
2018-08-03T11:34:17.895Z,101487.70
2018-08-03T11:36:46.989Z,101487.31
2018-08-03T11:39:16.054Z,101490.47
2018-08-03T11:41:45.169Z,101488.13
2018-08-03T11:44:14.267Z,101481.28
2018-08-03T11:46:44.622Z,101479.95
2018-08-03T11:49:13.688Z,101482.32
2018-08-03T11:51:42.816Z,101480.81
2018-08-03T11:54:11.912Z,101478.25
2018-08-03T11:56:41.046Z,101473.68
2018-08-03T11:59:10.120Z,101465.42
2018-08-03T12:01:39.219Z,101465.72
2018-08-03T12:04:08.288Z,101462.41
2018-08-03T12:06:37.432Z,101458.45
2018-08-03T12:09:07.373Z,101458.00
2018-08-03T12:11:36.479Z,101455.15
2018-08-03T12:14:05.623Z,101451.63
2018-08-03T12:16:34.705Z,101452.77
2018-08-03T12:19:03.795Z,101453.70
2018-08-03T12:21:32.878Z,101449.45
2018-08-03T12:24:02.738Z,101446.23
2018-08-03T12:26:31.858Z,101438.89
2018-08-03T12:29:00.976Z,101445.70
2018-08-03T12:31:30.102Z,101435.33
2018-08-03T12:33:59.177Z,101439.28
2018-08-03T12:36:28.235Z,101440.45
2018-08-03T12:38:57.332Z,101437.37
2018-08-03T12:41:27.450Z,101431.31
2018-08-03T12:43:57.006Z,101430.83
2018-08-03T12:46:26.123Z,101425.83
2018-08-03T12:48:55.208Z,101418.94
2018-08-03T12:51:24.274Z,101416.30
2018-08-03T12:53:53.368Z,101413.04
2018-08-03T12:56:22.545Z,101417.33
2018-08-03T12:58:51.931Z,101410.91
2018-08-03T13:01:21.741Z,101411.20
2018-08-03T13:03:51.040Z,101408.72
2018-08-03T13:06:20.395Z,101411.72
2018-08-03T13:08:49.500Z,101409.63
2018-08-03T13:11:18.616Z,101414.08
2018-08-03T13:13:47.704Z,101407.75
2018-08-03T13:16:16.775Z,101408.22
2018-08-03T13:18:45.844Z,101400.02
2018-08-03T13:21:26.232Z,101401.34
2018-08-03T13:23:57.624Z,101395.28
2018-08-03T13:26:27.196Z,101392.78
2018-08-03T13:28:56.848Z,101390.61
2018-08-03T13:31:27.554Z,101384.06
2018-08-03T13:33:56.719Z,101378.70
2018-08-03T13:36:27.124Z,101379.17
2018-08-03T13:38:56.199Z,101378.23
2018-08-03T13:41:25.307Z,101367.48
2018-08-03T13:43:54.419Z,101374.48
2018-08-03T13:46:23.481Z,101370.31
2018-08-03T13:48:52.720Z,101363.41
2018-08-03T13:51:21.787Z,101365.79
2018-08-03T13:53:50.880Z,101360.48
2018-08-03T13:56:19.952Z,101358.23
2018-08-03T13:58:49.035Z,101357.50
2018-08-03T14:01:29.448Z,101350.03
2018-08-03T14:03:58.590Z,101339.86
2018-08-03T14:06:27.671Z,101339.78
2018-08-03T14:08:56.757Z,101345.42
2018-08-03T14:11:25.843Z,101337.50
2018-08-03T14:13:54.941Z,101338.20
2018-08-03T14:16:24.084Z,101343.28
2018-08-03T14:18:53.184Z,101337.33
2018-08-03T14:21:22.248Z,101337.80
2018-08-03T14:23:51.332Z,101338.52
2018-08-03T14:26:20.404Z,101338.35
2018-08-03T14:28:49.545Z,101326.20
2018-08-03T14:31:18.643Z,101327.69
2018-08-03T14:33:47.741Z,101327.53
2018-08-03T14:36:16.810Z,101325.17
2018-08-03T14:38:45.979Z,101319.85
2018-08-03T14:41:15.122Z,101317.55
2018-08-03T14:43:44.182Z,101317.64
2018-08-03T14:46:13.269Z,101320.89
2018-08-03T14:48:42.351Z,101303.45
2018-08-03T14:51:11.448Z,101311.34
2018-08-03T14:53:40.563Z,101304.34
2018-08-03T14:56:10.505Z,101307.55
2018-08-03T14:58:39.588Z,101304.47
2018-08-03T15:01:08.693Z,101307.91
2018-08-03T15:03:37.756Z,101300.18
2018-08-03T15:06:06.883Z,101301.66
2018-08-03T15:08:35.945Z,101293.17
2018-08-03T15:11:05.052Z,101286.73
2018-08-03T15:13:34.132Z,101285.41
2018-08-03T15:16:03.310Z,101289.06
2018-08-03T15:18:32.374Z,101285.77
2018-08-03T15:21:01.518Z,101275.86
2018-08-03T15:23:30.755Z,101274.09
2018-08-03T15:25:59.905Z,101271.14
2018-08-03T15:28:29.098Z,101278.02
2018-08-03T15:30:58.196Z,101267.83
2018-08-03T15:33:27.256Z,101268.08
2018-08-03T15:35:56.376Z,101268.01
2018-08-03T15:38:26.667Z,101261.52
2018-08-03T15:40:55.862Z,101260.34
2018-08-03T15:43:24.983Z,101261.09
2018-08-03T15:45:54.094Z,101259.44
2018-08-03T15:48:24.397Z,101261.61
2018-08-03T15:50:53.561Z,101257.91
2018-08-03T15:53:22.627Z,101250.28
2018-08-03T15:55:51.728Z,101248.58
2018-08-03T15:58:20.837Z,101253.40
2018-08-03T16:00:49.933Z,101248.67
2018-08-03T16:03:19.026Z,101252.86
2018-08-03T16:05:48.121Z,101247.66
2018-08-03T16:08:17.215Z,101246.66
2018-08-03T16:10:47.251Z,101241.52
2018-08-03T16:13:16.467Z,101239.78
2018-08-03T16:15:45.567Z,101231.59
2018-08-03T16:18:14.651Z,101231.36
2018-08-03T16:20:43.753Z,101231.68
2018-08-03T16:23:12.827Z,101230.30
2018-08-03T16:25:41.994Z,101223.67
2018-08-03T16:28:10.999Z,101221.19
2018-08-03T16:30:40.124Z,101229.28
2018-08-03T16:33:09.193Z,101226.64
2018-08-03T16:35:38.292Z,101230.04
2018-08-03T16:38:08.508Z,101226.45
2018-08-03T16:40:37.597Z,101221.82
2018-08-03T16:43:06.920Z,101222.10
2018-08-03T16:45:36.090Z,101226.45
2018-08-03T16:48:06.164Z,101218.73
2018-08-03T16:50:35.667Z,101216.17
2018-08-03T16:53:04.772Z,101214.16
2018-08-03T16:55:33.877Z,101213.81
2018-08-03T16:58:02.963Z,101221.84
2018-08-03T17:00:32.053Z,101213.48
2018-08-03T17:03:01.348Z,101217.64
2018-08-03T17:05:30.512Z,101211.80
2018-08-03T17:07:59.580Z,101213.58
2018-08-03T17:10:28.754Z,101213.67
2018-08-03T17:12:57.807Z,101208.59
2018-08-03T17:15:26.894Z,101212.75
2018-08-03T17:17:55.961Z,101204.34
2018-08-03T17:20:25.142Z,101204.74
2018-08-03T17:22:54.237Z,101201.62
2018-08-03T17:25:23.316Z,101203.34
2018-08-03T17:27:52.400Z,101204.50
2018-08-03T17:30:21.480Z,101206.04
2018-08-03T17:32:50.585Z,101205.45
2018-08-03T17:35:19.711Z,101197.58
2018-08-03T17:37:48.809Z,101200.48
2018-08-03T17:40:17.896Z,101200.69
2018-08-03T17:42:47.042Z,101198.41
2018-08-03T17:45:16.102Z,101195.25
2018-08-03T17:47:45.192Z,101195.42
2018-08-03T17:50:14.260Z,101196.49
2018-08-03T17:52:43.383Z,101196.12
2018-08-03T17:55:12.471Z,101200.47
2018-08-03T17:57:41.563Z,101197.27
2018-08-03T18:00:10.917Z,101197.09
2018-08-03T18:02:40.013Z,101195.21
2018-08-03T18:05:09.155Z,101194.41
2018-08-03T18:07:38.280Z,101195.76
2018-08-03T18:10:07.776Z,101197.45
2018-08-03T18:12:36.868Z,101199.55
2018-08-03T18:15:07.417Z,101206.70
2018-08-03T18:17:36.619Z,101210.95
2018-08-03T18:20:05.968Z,101207.36
2018-08-03T18:22:35.069Z,101210.83
2018-08-03T18:25:04.531Z,101217.27
2018-08-03T18:27:33.695Z,101220.76
2018-08-03T18:30:02.780Z,101227.77
2018-08-03T18:32:31.880Z,101231.88
2018-08-03T18:35:01.052Z,101230.25
2018-08-03T18:37:30.162Z,101224.09
2018-08-03T18:39:59.239Z,101226.86
2018-08-03T18:42:29.311Z,101225.48
2018-08-03T18:44:58.524Z,101222.58
2018-08-03T18:47:27.612Z,101227.73
2018-08-03T18:49:56.739Z,101231.17
2018-08-03T18:52:25.840Z,101228.53
2018-08-03T18:54:54.916Z,101237.91
2018-08-03T18:57:24.024Z,101239.63
2018-08-03T18:59:53.127Z,101249.62
2018-08-03T19:02:22.232Z,101248.30
2018-08-03T19:04:51.496Z,101246.28
2018-08-03T19:07:20.589Z,101248.70
2018-08-03T19:09:49.672Z,101249.53
2018-08-03T19:12:18.772Z,101256.91
2018-08-03T19:14:47.853Z,101259.95
2018-08-03T19:17:16.952Z,101262.59
2018-08-03T19:19:46.041Z,101264.36
2018-08-03T19:22:15.202Z,101263.56
2018-08-03T19:24:44.232Z,101266.49
2018-08-03T19:27:13.332Z,101270.89
2018-08-03T19:29:42.407Z,101273.19
2018-08-03T19:32:11.496Z,101271.86
2018-08-03T19:34:40.573Z,101276.22
2018-08-03T19:37:09.754Z,101275.72
2018-08-03T19:39:38.839Z,101283.20
2018-08-03T19:42:07.969Z,101284.52
2018-08-03T19:44:37.048Z,101289.81
2018-08-03T19:47:06.186Z,101285.84
2018-08-03T19:49:35.233Z,101287.59
2018-08-03T19:52:04.736Z,101293.11
2018-08-03T19:54:33.796Z,101290.11
2018-08-03T19:57:02.908Z,101284.33
2018-08-03T19:59:31.981Z,101289.11
2018-08-03T20:02:01.065Z,101293.79
2018-08-03T20:04:30.152Z,101293.59
2018-08-03T20:06:59.270Z,101290.05
2018-08-03T20:09:28.367Z,101298.77
2018-08-03T20:11:57.463Z,101302.85
2018-08-03T20:14:26.569Z,101303.70
2018-08-03T20:16:55.649Z,101305.67
2018-08-03T20:19:24.768Z,101305.28
2018-08-03T20:21:53.849Z,101308.56
2018-08-03T20:24:22.948Z,101304.56
2018-08-03T20:26:52.052Z,101311.98
2018-08-03T20:29:21.156Z,101318.25
2018-08-03T20:31:50.243Z,101315.97
2018-08-03T20:34:19.339Z,101328.38
2018-08-03T20:36:48.440Z,101324.30
2018-08-03T20:39:17.620Z,101323.05
2018-08-03T20:41:46.691Z,101325.27
2018-08-03T20:44:15.889Z,101323.09
2018-08-03T20:46:45.003Z,101331.02
2018-08-03T20:49:14.105Z,101336.17
2018-08-03T20:51:43.208Z,101332.87
2018-08-03T20:54:12.304Z,101334.30
2018-08-03T20:56:41.394Z,101340.28
2018-08-03T20:59:10.487Z,101341.11
2018-08-03T21:01:39.646Z,101343.95
2018-08-03T21:04:08.744Z,101348.66
2018-08-03T21:06:37.840Z,101349.70
2018-08-03T21:09:08.924Z,101357.23
2018-08-03T21:11:38.008Z,101360.35
2018-08-03T21:14:07.196Z,101358.59
2018-08-03T21:16:37.160Z,101355.51
2018-08-03T21:19:06.348Z,101356.09
2018-08-03T21:21:36.367Z,101352.62
2018-08-03T21:24:06.204Z,101353.77
2018-08-03T21:26:35.300Z,101354.84
2018-08-03T21:29:04.436Z,101347.00
2018-08-03T21:39:08.715Z,101354.97
2018-08-03T21:41:37.855Z,101356.91
2018-08-03T21:44:07.080Z,101349.73
2018-08-03T21:46:36.156Z,101355.08
2018-08-03T21:49:05.311Z,101346.23
2018-08-03T21:51:34.704Z,101342.83
2018-08-03T21:54:04.153Z,101348.35
2018-08-03T21:56:33.428Z,101334.52
2018-08-03T21:59:02.699Z,101336.78
2018-08-03T22:01:31.789Z,101324.95
2018-08-03T22:04:00.892Z,101317.73
2018-08-03T22:06:29.985Z,101317.65
2018-08-03T22:08:59.076Z,101313.89
2018-08-03T22:11:28.167Z,101312.59
2018-08-03T22:13:57.295Z,101317.59
2018-08-03T22:16:26.388Z,101312.38
2018-08-03T22:18:55.548Z,101313.42
2018-08-03T22:21:24.544Z,101312.23
2018-08-03T22:23:53.636Z,101306.55
2018-08-03T22:26:23.384Z,101306.85
2018-08-03T22:28:52.507Z,101313.84
2018-08-03T22:31:21.574Z,101317.11
2018-08-03T22:33:50.657Z,101309.27
2018-08-03T22:36:19.740Z,101308.81
2018-08-03T22:38:48.935Z,101313.31
2018-08-03T22:41:18.000Z,101305.53
2018-08-03T22:43:47.143Z,101308.34
2018-08-03T22:46:16.200Z,101308.55
2018-08-03T22:48:45.294Z,101303.11
2018-08-03T22:51:14.395Z,101303.90
2018-08-03T22:53:43.475Z,101303.20
2018-08-03T22:56:12.568Z,101304.66
2018-08-03T22:58:41.680Z,101296.52
2018-08-03T23:01:10.827Z,101293.86
2018-08-03T23:03:39.841Z,101290.27
2018-08-03T23:06:09.441Z,101292.71
2018-08-03T23:08:38.525Z,101293.12
2018-08-03T23:11:07.617Z,101289.85
2018-08-03T23:13:36.827Z,101289.81
2018-08-03T23:16:05.949Z,101290.37
2018-08-03T23:18:35.014Z,101298.86
2018-08-03T23:21:04.104Z,101295.60
2018-08-03T23:23:33.168Z,101293.30
2018-08-03T23:26:02.264Z,101292.92
2018-08-03T23:28:31.356Z,101289.59
2018-08-03T23:31:00.456Z,101296.14
2018-08-03T23:33:29.590Z,101288.95
2018-08-03T23:35:58.707Z,101290.17
2018-08-03T23:38:27.777Z,101291.63
2018-08-03T23:40:56.856Z,101290.27
2018-08-03T23:43:25.975Z,101287.02
2018-08-03T23:45:55.057Z,101295.09
2018-08-03T23:48:24.129Z,101292.23
2018-08-03T23:50:53.227Z,101280.70
2018-08-03T23:53:22.298Z,101282.48
2018-08-03T23:55:51.584Z,101281.55
2018-08-03T23:58:20.676Z,101278.24
